Aegean Pride — ELXK8 — position and weather

sailwx.info

Track history (hours):
 
Tides and Currents Weather Stations Pressure Air Temp Water Temp Dewpoint Dewpoint Depression Visibility Wind Speed Wind Dir Waves Ship Positions

Aegean Pride

Last reported at 2016-Dec-01 03:28 UTC. Time now 2016-Dec-05 16:39 UTC.
Position N 01°14' E 104°03'.

Length 244 m; draft 9.1 m.

Type: Ship. MMSI: 636011186.

Date/timePositionNaut miles runAvg speedWind from/ knotsBaromVisibWave heightAir tempDewpointWater temp
2016-Dec-01 03:28N 01°14' E 104°03'1010.5
2016-Dec-01 02:33N 01°12' E 103°53'13 3.7
2016-Nov-30 23:04N 01°11' E 103°40'2 3.0
2016-Nov-30 22:31N 01°11' E 103°42'0 0.0
2016-Nov-30 13:32N 01°10' E 103°42'0 0.0
2016-Nov-30 12:32N 01°10' E 103°42'0 0.1
2016-Nov-30 11:27N 01°10' E 103°42'0 0.1
2016-Nov-30 10:33N 01°10' E 103°42'3 1.5
2016-Nov-30 08:32N 01°13' E 103°41'4 4.5
2016-Nov-30 07:34N 01°17' E 103°44'  
2016-Nov-27 01:33N 01°17' E 103°44'5 4.6
2016-Nov-27 00:30N 01°13' E 103°41'  
2016-Nov-24 19:32N 01°18' E 103°41'4 4.3
2016-Nov-24 18:33N 01°13' E 103°40'2 0.3
2016-Nov-24 13:07N 01°12' E 103°41'0 0.0
2016-Nov-24 05:31N 01°12' E 103°41'0 0.1
2016-Nov-24 04:13N 01°12' E 103°41'0 0.1
2016-Nov-24 03:25N 01°12' E 103°41'0 0.3
2016-Nov-24 02:33N 01°12' E 103°41'7 6.6
2016-Nov-24 01:33N 01°10' E 103°47'7 6.7
2016-Nov-24 00:34N 01°13' E 103°53'  
Track history (hours):
 
Tides and Currents Weather Stations Pressure Air Temp Water Temp Dewpoint Dewpoint Depression Visibility Wind Speed Wind Dir Waves Ship Positions

Aegean Pride

Last reported at 2016-Dec-01 03:28 UTC. Time now 2016-Dec-05 16:39 UTC.
Position N 01°14' E 104°03'.

Length 244 m; draft 9.1 m.

Type: Ship. MMSI: 636011186.

Date/timePositionNaut miles runAvg speedWind from/ knotsBaromVisibWave heightAir tempDewpointWater temp
2016-Dec-01 03:28N 01°14' E 104°03'1010.5
2016-Dec-01 02:33N 01°12' E 103°53'13 3.7
2016-Nov-30 23:04N 01°11' E 103°40'2 3.0
2016-Nov-30 22:31N 01°11' E 103°42'0 0.0
2016-Nov-30 13:32N 01°10' E 103°42'0 0.0
2016-Nov-30 12:32N 01°10' E 103°42'0 0.1
2016-Nov-30 11:27N 01°10' E 103°42'0 0.1
2016-Nov-30 10:33N 01°10' E 103°42'3 1.5
2016-Nov-30 08:32N 01°13' E 103°41'4 4.5
2016-Nov-30 07:34N 01°17' E 103°44'  
2016-Nov-27 01:33N 01°17' E 103°44'5 4.6
2016-Nov-27 00:30N 01°13' E 103°41'  
2016-Nov-24 19:32N 01°18' E 103°41'4 4.3
2016-Nov-24 18:33N 01°13' E 103°40'2 0.3
2016-Nov-24 13:07N 01°12' E 103°41'0 0.0
2016-Nov-24 05:31N 01°12' E 103°41'0 0.1
2016-Nov-24 04:13N 01°12' E 103°41'0 0.1
2016-Nov-24 03:25N 01°12' E 103°41'0 0.3
2016-Nov-24 02:33N 01°12' E 103°41'7 6.6
2016-Nov-24 01:33N 01°10' E 103°47'7 6.7
2016-Nov-24 00:34N 01°13' E 103°53'  

Dump ship's entire track history